Time;durP1;ratioP1;P1;durP2;ratioP2;P2;SDS_P1;SDS_P2;PMS_P1;PMS_P2;Temp;Humidity;BMP_temperature;BMP_pressure;BME280_temperature;BME280_humidity;BME280_pressure;Samples;Min_cycle;Max_cycle;Signal;HPM_P1;HPM_P2
2021/06/20 00:02:40;;;;;;;21.45;6.25;;;;;;;24.63;59.77;100306.19;5074418;28;20059;-80
2021/06/20 00:06:28;;;;;;;16.98;5.32;;;;;;;24.51;60.58;100310.75;5074371;28;20479;-79
2021/06/20 00:09:32;;;;;;;24.42;6.00;;;;;;;24.35;60.60;100290.22;5074267;28;20051;-80
2021/06/20 00:12:38;;;;;;;22.20;6.65;;;;;;;24.41;60.75;100299.47;5074312;28;20383;-80
2021/06/20 00:15:44;;;;;;;21.55;6.50;;;;;;;24.34;61.37;100304.97;5074265;28;20048;-80
2021/06/20 00:18:48;;;;;;;31.70;6.22;;;;;;;24.29;61.49;100306.75;5073302;28;20384;-79
2021/06/20 00:21:53;;;;;;;29.08;5.80;;;;;;;24.36;61.41;100308.38;5073829;28;20063;-80
2021/06/20 00:24:58;;;;;;;24.83;6.03;;;;;;;24.22;61.22;100326.00;5074408;28;20067;-80
2021/06/20 00:28:03;;;;;;;21.42;6.10;;;;;;;23.95;62.55;100313.50;5074345;28;20051;-80
2021/06/20 00:31:08;;;;;;;27.80;6.10;;;;;;;23.86;62.58;100304.72;5074022;28;20075;-79
2021/06/20 00:34:12;;;;;;;21.48;6.35;;;;;;;23.85;62.39;100300.31;5072795;28;20059;-80
2021/06/20 00:37:17;;;;;;;21.38;5.75;;;;;;;23.86;62.33;100315.69;5073469;28;20052;-80
2021/06/20 00:40:22;;;;;;;25.77;6.38;;;;;;;23.89;62.50;100318.00;5073969;28;20055;-79
2021/06/20 00:43:26;;;;;;;24.42;5.55;;;;;;;23.78;62.69;100323.34;5073929;28;20423;-80
2021/06/20 00:46:31;;;;;;;18.35;5.68;;;;;;;23.64;62.77;100319.84;5073915;28;20049;-79
2021/06/20 00:49:35;;;;;;;25.60;6.22;;;;;;;23.49;63.47;100311.09;5073882;28;20055;-80
2021/06/20 00:52:41;;;;;;;30.55;7.03;;;;;;;23.47;63.35;100313.22;5073882;28;20052;-80
2021/06/20 00:55:50;;;;;;;23.92;5.93;;;;;;;23.46;63.34;100316.16;5074071;28;20072;-80
2021/06/20 00:59:02;;;;;;;21.05;5.45;;;;;;;23.63;63.07;100311.84;5072951;28;20483;-80
2021/06/20 01:02:06;;;;;;;26.58;6.32;;;;;;;23.71;62.88;100317.91;5073704;28;20055;-81
2021/06/20 01:05:11;;;;;;;24.27;7.50;;;;;;;23.65;62.80;100307.81;5072920;28;20051;-81
2021/06/20 01:08:16;;;;;;;30.85;6.13;;;;;;;23.69;62.95;100311.81;5073889;28;20048;-80
2021/06/20 01:11:21;;;;;;;20.85;5.07;;;;;;;23.68;62.99;100314.75;5074425;28;20512;-80
2021/06/20 01:14:26;;;;;;;20.75;5.10;;;;;;;23.68;63.32;100320.25;5077577;28;20063;-80
2021/06/20 01:17:31;;;;;;;25.27;6.93;;;;;;;23.67;62.87;100318.56;5077847;28;20048;-81
2021/06/20 01:20:37;;;;;;;29.42;6.95;;;;;;;23.48;63.50;100322.28;5077117;28;20051;-80
2021/06/20 01:23:42;;;;;;;24.90;6.18;;;;;;;23.25;64.05;100307.19;5076629;28;20044;-80
2021/06/20 01:26:46;;;;;;;24.95;6.40;;;;;;;23.16;64.17;100307.63;5077638;28;20040;-80
2021/06/20 01:29:52;;;;;;;26.55;5.65;;;;;;;23.24;64.33;100310.97;5076537;28;20041;-80
2021/06/20 01:32:58;;;;;;;22.08;6.45;;;;;;;23.30;63.63;100306.53;5077226;28;20051;-80
2021/06/20 01:36:03;;;;;;;27.55;6.85;;;;;;;23.24;63.63;100291.78;5077257;28;20051;-80
2021/06/20 01:39:09;;;;;;;25.10;6.00;;;;;;;23.27;63.82;100285.03;5077279;28;20051;-80
2021/06/20 01:42:15;;;;;;;19.48;5.82;;;;;;;23.28;63.42;100289.47;5077050;28;20063;-80
2021/06/20 01:45:21;;;;;;;30.40;7.30;;;;;;;23.35;62.99;100282.06;5077026;28;20055;-81
2021/06/20 01:48:25;;;;;;;21.52;6.18;;;;;;;23.38;63.06;100281.63;5076953;28;20056;-80
2021/06/20 01:51:30;;;;;;;25.27;6.45;;;;;;;23.32;62.64;100290.72;5064894;28;20051;-80
2021/06/20 01:54:37;;;;;;;31.10;6.82;;;;;;;23.28;63.09;100292.22;5075781;28;20051;-81
2021/06/20 01:57:43;;;;;;;27.98;5.90;;;;;;;23.22;63.04;100293.91;5076827;28;20055;-80
2021/06/20 02:00:50;;;;;;;28.58;6.55;;;;;;;23.32;62.52;100298.94;5076715;28;20052;-80
2021/06/20 02:03:54;;;;;;;28.00;6.75;;;;;;;23.35;62.04;100292.16;5076663;28;20052;-81
2021/06/20 02:06:58;;;;;;;17.25;5.38;;;;;;;23.43;61.95;100289.22;5076636;28;20071;-80
2021/06/20 02:10:06;;;;;;;21.65;6.15;;;;;;;23.46;61.74;100291.50;5076890;28;20056;-80
2021/06/20 02:13:10;;;;;;;26.40;6.57;;;;;;;23.44;61.62;100288.97;5075752;28;20052;-81
2021/06/20 02:16:15;;;;;;;25.63;5.82;;;;;;;23.46;61.44;100283.28;5076449;28;20071;-80
2021/06/20 02:19:19;;;;;;;25.95;6.25;;;;;;;23.33;61.64;100298.69;5076257;28;20052;-80
2021/06/20 02:22:28;;;;;;;24.80;6.13;;;;;;;23.29;62.36;100300.19;5076397;28;20047;-80
2021/06/20 02:25:33;;;;;;;28.60;6.45;;;;;;;23.20;62.63;100284.25;5076244;28;20052;-80
2021/06/20 02:28:37;;;;;;;29.58;6.95;;;;;;;23.07;62.85;100298.81;5076194;28;20383;-80
2021/06/20 02:31:49;;;;;;;27.98;6.03;;;;;;;23.00;63.55;100294.44;5076170;28;20051;-80
2021/06/20 02:34:54;;;;;;;27.58;6.75;;;;;;;23.01;63.53;100286.00;5075535;28;20103;-80
2021/06/20 02:37:58;;;;;;;21.45;6.45;;;;;;;23.05;63.29;100276.31;5075767;28;20043;-80
2021/06/20 02:41:03;;;;;;;22.58;6.10;;;;;;;23.07;62.89;100281.56;5075994;28;20060;-79
2021/06/20 02:44:07;;;;;;;20.67;5.75;;;;;;;23.10;63.17;100270.16;5075942;28;20055;-79
2021/06/20 02:47:13;;;;;;;29.02;6.35;;;;;;;23.05;62.71;100257.13;5075939;28;20075;-80
2021/06/20 02:50:17;;;;;;;27.40;5.60;;;;;;;23.03;62.93;100272.94;5075846;28;20383;-79
2021/06/20 02:53:22;;;;;;;23.67;6.22;;;;;;;23.15;63.09;100278.56;5076052;28;20052;-80
2021/06/20 02:56:27;;;;;;;16.92;5.40;;;;;;;23.26;62.75;100266.91;5075341;28;20495;-79
2021/06/20 02:59:31;;;;;;;24.50;7.03;;;;;;;23.38;62.20;100270.66;5075446;28;20056;-79
2021/06/20 03:02:36;;;;;;;24.08;5.82;;;;;;;23.35;61.72;100282.06;5075563;28;20486;-79
2021/06/20 03:05:40;;;;;;;26.83;6.07;;;;;;;23.29;62.49;100310.31;5075387;28;20056;-80
2021/06/20 03:08:45;;;;;;;25.63;6.65;;;;;;;23.27;62.16;100324.25;5075393;28;20059;-80
2021/06/20 03:11:49;;;;;;;28.08;6.93;;;;;;;23.17;62.79;100328.47;5075392;28;20115;-79
2021/06/20 03:14:53;;;;;;;29.63;6.25;;;;;;;22.93;63.59;100323.72;5075347;28;20056;-78
2021/06/20 03:17:58;;;;;;;21.45;6.25;;;;;;;22.74;64.46;100325.44;5074456;28;20055;-80
2021/06/20 03:21:02;;;;;;;32.85;6.88;;;;;;;22.61;64.65;100342.72;5075133;28;20503;-80
2021/06/20 03:24:07;;;;;;;31.40;6.85;;;;;;;22.47;65.05;100348.41;5075105;28;20055;-80
2021/06/20 03:27:12;;;;;;;28.70;5.88;;;;;;;22.40;65.19;100361.25;5075120;28;20434;-80
2021/06/20 03:30:17;;;;;;;28.15;6.10;;;;;;;22.30;65.65;100372.59;5074987;28;20055;-81
2021/06/20 03:33:21;;;;;;;27.20;5.78;;;;;;;22.29;65.79;100379.16;5074913;28;20376;-80
2021/06/20 03:36:27;;;;;;;27.55;7.22;;;;;;;22.27;65.77;100374.94;5074235;28;20102;-81
2021/06/20 03:39:33;;;;;;;21.63;5.65;;;;;;;22.26;65.76;100367.78;5074010;28;20075;-80
2021/06/20 03:42:37;;;;;;;26.05;6.90;;;;;;;22.29;65.16;100340.00;5074769;28;20048;-80
2021/06/20 03:45:42;;;;;;;29.20;6.53;;;;;;;22.37;65.19;100342.50;5074711;28;20482;-79
2021/06/20 03:48:46;;;;;;;28.92;7.30;;;;;;;22.40;64.66;100340.22;5073838;28;20055;-80
2021/06/20 03:51:51;;;;;;;41.88;6.65;;;;;;;22.57;64.38;100315.97;5074581;28;20051;-80
2021/06/20 03:54:56;;;;;;;26.85;5.95;;;;;;;22.77;64.03;100303.13;5074144;28;20067;-80
2021/06/20 03:58:01;;;;;;;22.02;5.78;;;;;;;22.89;63.14;100304.16;5074385;28;20043;-81
2021/06/20 04:01:06;;;;;;;33.05;6.35;;;;;;;23.05;62.55;100298.22;5074023;28;20387;-81
2021/06/20 04:04:11;;;;;;;25.88;7.07;;;;;;;23.14;61.70;100294.16;5074315;28;20047;-80
2021/06/20 04:07:16;;;;;;;25.33;6.05;;;;;;;23.21;61.76;100302.34;5074287;28;20052;-80
2021/06/20 04:10:21;;;;;;;28.88;6.38;;;;;;;23.28;62.36;100303.16;5073981;28;20396;-79
2021/06/20 04:13:25;;;;;;;25.30;6.32;;;;;;;23.35;62.24;100287.53;5074261;28;20087;-81
2021/06/20 04:16:30;;;;;;;31.80;6.45;;;;;;;23.36;62.20;100302.09;5074266;28;20052;-80
2021/06/20 04:19:34;;;;;;;27.08;6.28;;;;;;;23.39;62.00;100321.69;5074127;28;20047;-80
2021/06/20 04:22:41;;;;;;;34.85;7.55;;;;;;;23.45;61.78;100329.03;5074323;28;20043;-80
2021/06/20 04:25:46;;;;;;;27.90;6.38;;;;;;;23.34;61.87;100329.69;5074087;28;20047;-81
2021/06/20 04:28:50;;;;;;;36.75;7.47;;;;;;;23.26;61.87;100322.53;5074027;28;20051;-80
2021/06/20 04:31:54;;;;;;;26.45;6.97;;;;;;;23.33;61.75;100311.56;5073961;28;20047;-80
2021/06/20 04:34:59;;;;;;;26.40;6.32;;;;;;;23.47;61.60;100313.22;5073368;28;20047;-80
2021/06/20 04:38:04;;;;;;;31.48;7.60;;;;;;;23.55;61.24;100332.16;5074251;28;20068;-80
2021/06/20 04:41:12;;;;;;;24.85;6.35;;;;;;;23.60;61.19;100323.25;5073873;28;20076;-80
2021/06/20 04:47:42;;;;;;;27.50;6.20;;;;;;;23.74;60.36;100281.84;5073704;28;20115;-81
2021/06/20 04:50:46;;;;;;;20.70;5.85;;;;;;;23.95;60.12;100295.16;5074162;28;20047;-80
2021/06/20 04:53:51;;;;;;;26.70;6.68;;;;;;;24.05;60.84;100296.59;5073817;28;20044;-80
2021/06/20 04:56:55;;;;;;;28.38;5.97;;;;;;;24.19;60.90;100289.97;5073830;28;20052;-81
2021/06/20 05:00:01;;;;;;;27.52;6.38;;;;;;;24.23;60.44;100283.78;5073666;28;20047;-80
2021/06/20 05:03:07;;;;;;;23.30;6.75;;;;;;;24.32;60.24;100282.44;5073741;28;20487;-80
2021/06/20 05:05:52;;;;;;;21.02;6.13;;;;;;;24.41;61.02;100278.34;5080164;28;20399;-80
2021/06/20 05:08:38;;;;;;;30.90;7.00;;;;;;;24.59;60.36;100278.34;5080389;28;20103;-79
2021/06/20 05:11:42;;;;;;;34.33;6.95;;;;;;;24.74;59.79;100264.25;5073928;28;20051;-81
2021/06/20 05:14:28;;;;;;;29.83;7.43;;;;;;;24.79;60.55;100272.66;5080290;28;20063;-80
2021/06/20 05:17:17;;;;;;;29.48;6.57;;;;;;;24.93;60.13;100251.41;5080299;28;20047;-80
2021/06/20 05:20:21;;;;;;;28.13;5.78;;;;;;;25.09;59.99;100259.00;5073518;28;20383;-80
2021/06/20 05:23:08;;;;;;;25.27;5.75;;;;;;;25.52;58.32;100278.09;5080236;28;20051;-80
2021/06/20 05:25:53;;;;;;;32.00;6.18;;;;;;;25.59;57.77;100271.44;5080212;28;20056;-80
2021/06/20 05:28:39;;;;;;;30.73;6.93;;;;;;;25.56;56.96;100271.06;5080395;28;20077;-80
2021/06/20 05:31:25;;;;;;;26.17;6.38;;;;;;;25.88;55.63;100274.38;5080160;28;20055;-80
2021/06/20 05:34:11;;;;;;;27.95;6.03;;;;;;;26.00;55.28;100265.06;5077934;28;20051;-80
2021/06/20 05:37:16;;;;;;;22.58;6.35;;;;;;;26.29;53.96;100255.09;5073476;28;20048;-80
2021/06/20 05:40:20;;;;;;;22.23;6.63;;;;;;;26.58;53.37;100258.78;5072490;28;20494;-80
2021/06/20 05:43:06;;;;;;;27.60;7.00;;;;;;;26.98;51.91;100259.72;5080028;28;20431;-80
2021/06/20 05:45:52;;;;;;;32.38;6.78;;;;;;;27.46;51.10;100251.88;5080031;28;20048;-80
2021/06/20 05:48:56;;;;;;;27.20;6.03;;;;;;;27.66;50.70;100241.22;5073284;28;20043;-79
2021/06/20 05:52:00;;;;;;;34.92;6.75;;;;;;;27.56;51.02;100220.88;5073192;28;20048;-79
2021/06/20 05:55:07;;;;;;;26.63;7.25;;;;;;;27.29;52.44;100200.50;5072946;28;20048;-79
2021/06/20 05:58:12;;;;;;;23.48;6.13;;;;;;;26.89;54.04;100195.03;5073753;28;20396;-80
2021/06/20 06:00:58;;;;;;;20.30;5.88;;;;;;;27.19;53.45;100181.84;5082223;28;20052;-80
2021/06/20 06:03:43;;;;;;;22.73;8.00;;;;;;;27.45;53.25;100172.16;5083150;28;20048;-79
2021/06/20 06:06:29;;;;;;;26.75;10.60;;;;;;;28.27;50.44;100171.31;5083404;28;20063;-80
2021/06/20 06:09:15;;;;;;;22.17;7.50;;;;;;;28.47;48.71;100181.78;5083391;28;20044;-79
2021/06/20 06:12:02;;;;;;;24.95;6.25;;;;;;;28.52;48.48;100205.88;5083551;28;20379;-80
2021/06/20 06:14:49;;;;;;;19.88;5.40;;;;;;;28.79;47.34;100207.66;5082218;28;20063;-80
2021/06/20 06:17:35;;;;;;;18.20;5.60;;;;;;;28.75;46.64;100205.69;5083145;28;20052;-80
2021/06/20 06:20:20;;;;;;;24.85;6.03;;;;;;;29.25;45.54;100220.16;5082968;28;20094;-80
2021/06/20 06:23:06;;;;;;;23.55;4.60;;;;;;;30.55;40.91;100240.97;5082839;28;20059;-80
2021/06/20 06:26:11;;;;;;;21.42;10.85;;;;;;;32.31;37.18;100235.91;5076589;28;20153;-80
2021/06/20 06:28:57;;;;;;;30.92;18.90;;;;;;;33.35;35.32;100235.91;5082968;28;20052;-79
2021/06/20 06:31:42;;;;;;;20.02;4.85;;;;;;;33.20;35.28;100238.75;5082863;28;20459;-79
2021/06/20 06:34:28;;;;;;;21.35;4.57;;;;;;;33.10;36.40;100235.19;5078410;28;20047;-80
2021/06/20 06:37:14;;;;;;;23.02;4.72;;;;;;;32.57;37.98;100232.00;5082567;28;20464;-79
2021/06/20 06:40:18;;;;;;;17.50;4.68;;;;;;;32.13;39.07;100233.72;5076003;28;20051;-80
2021/06/20 06:43:04;;;;;;;13.75;4.45;;;;;;;31.14;40.37;100236.84;5082709;28;20047;-80
2021/06/20 06:45:50;;;;;;;22.85;4.47;;;;;;;30.33;40.31;100227.22;5082368;28;20043;-80
2021/06/20 06:48:36;;;;;;;20.27;5.07;;;;;;;29.99;41.25;100226.72;5082346;28;20044;-80
2021/06/20 06:51:22;;;;;;;16.88;4.60;;;;;;;29.91;41.89;100237.41;5082552;28;20048;-80
2021/06/20 06:54:08;;;;;;;21.23;4.82;;;;;;;29.87;42.00;100239.91;5082465;28;20067;-80
2021/06/20 06:56:54;;;;;;;17.73;5.63;;;;;;;29.89;42.13;100242.38;5082418;28;20064;-79
2021/06/20 06:59:39;;;;;;;26.10;5.57;;;;;;;29.95;42.05;100230.28;5082395;28;20494;-79
2021/06/20 07:02:25;;;;;;;13.77;4.05;;;;;;;30.03;42.69;100222.31;5082327;28;20383;-79
2021/06/20 07:05:11;;;;;;;13.63;3.47;;;;;;;30.06;40.72;100237.53;5082201;28;20051;-79
2021/06/20 07:07:57;;;;;;;15.60;4.03;;;;;;;30.01;41.07;100232.81;5081982;28;20052;-80
2021/06/20 07:10:42;;;;;;;18.75;4.78;;;;;;;30.18;42.35;100230.72;5082066;28;20055;-79
2021/06/20 07:13:28;;;;;;;14.05;4.40;;;;;;;30.84;41.70;100243.06;5082017;28;20052;-80
2021/06/20 07:16:32;;;;;;;17.88;4.30;;;;;;;31.36;40.56;100234.69;5075294;28;20055;-80
2021/06/20 07:19:18;;;;;;;12.50;4.80;;;;;;;31.81;39.49;100231.19;5081694;28;20498;-80
2021/06/20 07:22:05;;;;;;;16.65;4.10;;;;;;;31.78;38.47;100236.44;5081614;28;20051;-80
2021/06/20 07:25:11;;;;;;;20.83;4.18;;;;;;;31.25;36.93;100221.06;5074271;28;20392;-80
2021/06/20 07:28:16;;;;;;;18.17;4.10;;;;;;;31.21;37.58;100229.09;5075101;28;20507;-80
2021/06/20 07:31:20;;;;;;;14.38;3.70;;;;;;;31.34;37.90;100234.13;5074253;28;20055;-80
2021/06/20 07:34:06;;;;;;;16.27;3.88;;;;;;;32.08;36.76;100236.50;5079285;28;20115;-80
2021/06/20 07:37:04;;;;;;;12.40;3.95;;;;;;;34.45;32.89;100222.22;5081702;28;20491;-80
2021/06/20 07:40:12;;;;;;;11.50;3.45;;;;;;;37.74;27.98;100221.13;5074713;28;20388;-79
2021/06/20 07:43:16;;;;;;;10.98;2.92;;;;;;;39.02;26.27;100221.06;5075034;28;20043;-79
2021/06/20 07:46:21;;;;;;;16.38;3.40;;;;;;;40.48;24.73;100209.88;5073917;28;20052;-80
2021/06/20 07:49:25;;;;;;;14.30;3.53;;;;;;;41.62;23.47;100199.28;5074703;28;20055;-79
2021/06/20 07:52:29;;;;;;;12.07;3.92;;;;;;;42.86;22.41;100202.63;5074382;28;20048;-80
2021/06/20 07:55:34;;;;;;;15.32;3.13;;;;;;;41.51;22.84;100196.06;5074573;28;20067;-79
2021/06/20 07:58:39;;;;;;;13.75;3.50;;;;;;;40.14;24.17;100185.47;5074556;28;20487;-80
2021/06/20 08:01:44;;;;;;;13.10;3.00;;;;;;;39.76;24.75;100182.50;5074435;28;20056;-80
2021/06/20 08:04:48;;;;;;;12.93;3.40;;;;;;;38.26;27.32;100180.25;5074427;28;20048;-80
2021/06/20 08:07:52;;;;;;;17.15;4.38;;;;;;;36.52;28.55;100177.28;5074389;28;20055;-80
2021/06/20 08:10:59;;;;;;;21.17;4.20;;;;;;;35.71;30.00;100177.88;5074277;28;20063;-80
2021/06/20 08:14:05;;;;;;;14.07;4.70;;;;;;;34.48;31.97;100188.19;5074297;28;20055;-79
2021/06/20 08:17:10;;;;;;;13.77;4.35;;;;;;;33.30;34.45;100182.22;5074188;28;20051;-79
2021/06/20 08:20:15;;;;;;;21.75;3.80;;;;;;;32.78;35.55;100177.16;5073982;28;20064;-80
2021/06/20 08:23:19;;;;;;;17.58;3.83;;;;;;;32.50;36.15;100173.06;5073243;28;20495;-80
2021/06/20 08:26:23;;;;;;;16.90;3.70;;;;;;;31.90;36.71;100167.63;5074017;28;20522;-80
2021/06/20 08:29:28;;;;;;;18.45;4.63;;;;;;;31.45;38.04;100165.66;5074249;28;20075;-79
2021/06/20 08:32:32;;;;;;;14.02;3.60;;;;;;;31.51;37.93;100161.75;5073180;28;20051;-79
2021/06/20 08:35:37;;;;;;;13.02;5.00;;;;;;;31.66;38.10;100161.78;5073256;28;20051;-79
2021/06/20 08:38:42;;;;;;;14.32;4.00;;;;;;;31.75;38.52;100164.84;5073952;28;20047;-79
2021/06/20 08:41:47;;;;;;;19.48;4.10;;;;;;;31.89;37.76;100152.88;5073875;28;20056;-79
2021/06/20 08:44:52;;;;;;;16.70;3.97;;;;;;;32.12;37.81;100166.19;5073978;28;20048;-79
2021/06/20 08:47:56;;;;;;;14.13;4.10;;;;;;;32.45;37.64;100163.91;5073868;28;20511;-80
2021/06/20 08:51:01;;;;;;;12.45;3.60;;;;;;;32.89;37.32;100159.28;5073040;28;20048;-79
2021/06/20 08:54:06;;;;;;;14.80;3.90;;;;;;;33.72;35.66;100163.00;5073786;28;20047;-80
2021/06/20 08:57:12;;;;;;;17.00;4.28;;;;;;;33.71;34.53;100152.13;5074045;28;20075;-79
2021/06/20 09:00:18;;;;;;;18.60;3.83;;;;;;;34.09;34.48;100154.03;5072881;28;20071;-80
2021/06/20 09:03:23;;;;;;;13.57;3.20;;;;;;;34.26;33.95;100150.78;5074020;28;20047;-80
2021/06/20 09:06:28;;;;;;;18.88;4.13;;;;;;;34.33;33.72;100143.75;5073703;28;20055;-80
2021/06/20 09:09:35;;;;;;;17.38;4.22;;;;;;;33.87;34.33;100154.50;5073663;28;20056;-79
2021/06/20 09:12:44;;;;;;;14.43;3.88;;;;;;;33.48;34.87;100148.09;5073669;28;20419;-79
2021/06/20 09:16:08;;;;;;;17.98;3.65;;;;;;;33.72;34.28;100143.50;5073629;28;20043;-79
2021/06/20 09:19:13;;;;;;;16.70;4.32;;;;;;;33.58;34.93;100141.69;5073551;28;20048;-79
2021/06/20 09:22:18;;;;;;;15.13;3.80;;;;;;;34.07;34.15;100127.59;5073450;28;20052;-79
2021/06/20 09:25:28;;;;;;;19.65;3.95;;;;;;;34.46;33.41;100129.09;5073529;28;20047;-79
2021/06/20 09:28:35;;;;;;;11.43;3.67;;;;;;;34.60;32.85;100135.63;5072669;28;20067;-79
2021/06/20 09:31:46;;;;;;;11.60;3.75;;;;;;;33.78;34.15;100133.97;5073433;28;20095;-80
2021/06/20 09:34:54;;;;;;;16.67;4.45;;;;;;;33.62;34.95;100135.22;5076035;28;20067;-79
2021/06/20 09:37:59;;;;;;;15.75;4.80;;;;;;;33.20;35.39;100134.97;5077199;28;20055;-80
2021/06/20 09:41:15;;;;;;;16.13;3.88;;;;;;;33.14;35.60;100122.19;5077074;28;20060;-79
2021/06/20 09:44:20;;;;;;;20.25;4.93;;;;;;;33.37;35.63;100121.47;5077016;28;20102;-80
2021/06/20 09:47:26;;;;;;;16.83;3.60;;;;;;;33.65;34.97;100115.16;5077019;28;20383;-80
2021/06/20 09:50:41;;;;;;;17.20;4.60;;;;;;;33.98;34.77;100111.47;5077007;28;20498;-79
2021/06/20 09:53:48;;;;;;;15.50;3.60;;;;;;;33.75;35.51;100114.25;5076054;28;20047;-79
2021/06/20 09:56:52;;;;;;;23.75;4.05;;;;;;;33.83;34.86;100108.84;5076805;28;20043;-80
2021/06/20 09:59:59;;;;;;;18.02;4.45;;;;;;;33.96;34.70;100108.16;5076002;28;20067;-80
2021/06/20 10:03:04;;;;;;;21.45;4.72;;;;;;;33.33;35.43;100107.28;5076731;28;20059;-79
2021/06/20 10:06:10;;;;;;;14.93;4.20;;;;;;;32.88;35.91;100106.75;5076971;28;20494;-80
2021/06/20 10:09:15;;;;;;;29.00;4.82;;;;;;;32.72;36.69;100104.06;5076520;28;20048;-79
2021/06/20 10:12:20;;;;;;;18.67;4.18;;;;;;;32.40;36.95;100100.84;5076580;28;20047;-79
2021/06/20 10:15:28;;;;;;;17.02;4.72;;;;;;;32.37;38.15;100087.50;5076526;28;20379;-79
2021/06/20 10:18:32;;;;;;;21.77;5.20;;;;;;;32.33;38.18;100082.81;5076460;28;20044;-79
2021/06/20 10:21:42;;;;;;;19.30;4.75;;;;;;;32.41;37.99;100080.28;5076033;28;20052;-80
2021/06/20 10:24:53;;;;;;;27.65;5.00;;;;;;;32.15;36.90;100081.47;5075554;28;20044;-80
2021/06/20 10:28:06;;;;;;;30.38;5.53;;;;;;;32.47;36.81;100073.56;5075524;28;20047;-80
2021/06/20 10:31:10;;;;;;;26.63;5.05;;;;;;;32.64;37.47;100079.63;5075436;28;20047;-79
2021/06/20 10:34:19;;;;;;;24.63;5.20;;;;;;;32.59;37.35;100079.66;5075459;28;20056;-80
2021/06/20 10:37:26;;;;;;;19.80;4.47;;;;;;;32.59;37.80;100082.44;5074980;28;20052;-80
2021/06/20 10:40:34;;;;;;;24.20;5.80;;;;;;;32.07;38.56;100084.84;5075041;28;20052;-80
2021/06/20 10:43:39;;;;;;;29.90;6.43;;;;;;;32.13;38.71;100069.81;5074886;28;20048;-79
2021/06/20 10:46:54;;;;;;;19.30;4.68;;;;;;;32.14;38.36;100074.28;5076062;28;20047;-79
2021/06/20 10:50:08;;;;;;;20.60;5.00;;;;;;;32.67;37.98;100072.66;5075728;28;20064;-79
2021/06/20 10:53:13;;;;;;;22.05;4.93;;;;;;;32.88;37.95;100070.59;5075796;28;20059;-79
2021/06/20 10:56:21;;;;;;;30.73;5.20;;;;;;;33.07;37.80;100057.69;5075751;28;20387;-78
2021/06/20 10:59:26;;;;;;;17.08;5.00;;;;;;;32.61;38.54;100066.31;5074878;28;20051;-80
2021/06/20 11:02:32;;;;;;;26.65;5.80;;;;;;;32.70;37.99;100064.59;5075472;28;20384;-79
2021/06/20 11:06:09;;;;;;;27.77;6.07;;;;;;;32.12;39.23;100054.28;5075534;28;20056;-79
2021/06/20 11:09:14;;;;;;;22.30;6.40;;;;;;;32.20;39.02;100055.63;5075240;28;20044;-80
2021/06/20 11:12:18;;;;;;;18.40;4.68;;;;;;;32.04;39.16;100052.91;5075336;28;20044;-80
2021/06/20 11:15:29;;;;;;;27.20;5.72;;;;;;;32.25;38.39;100045.31;5075227;28;20043;-79
2021/06/20 11:18:34;;;;;;;16.60;4.72;;;;;;;32.17;38.15;100038.41;5075292;28;20039;-80
2021/06/20 11:21:42;;;;;;;25.50;5.50;;;;;;;32.03;38.55;100047.63;5074303;28;20051;-80
2021/06/20 11:24:49;;;;;;;26.38;6.45;;;;;;;32.00;39.16;100035.13;5074361;28;20051;-79
2021/06/20 11:27:54;;;;;;;24.77;5.50;;;;;;;31.88;40.14;100030.97;5075138;28;20494;-79
2021/06/20 11:31:10;;;;;;;21.00;5.95;;;;;;;32.14;39.54;100021.50;5075011;28;20060;-79
2021/06/20 11:34:15;;;;;;;26.45;5.20;;;;;;;32.32;39.49;100020.03;5074686;28;20507;-79
2021/06/20 11:37:29;;;;;;;23.00;5.82;;;;;;;32.36;39.27;100026.66;5074920;28;20051;-79
2021/06/20 11:40:34;;;;;;;27.48;5.28;;;;;;;32.41;39.12;100019.13;5073997;28;20391;-79
2021/06/20 11:43:55;;;;;;;23.40;5.00;;;;;;;32.47;39.45;100022.69;5074976;28;20051;-79
2021/06/20 11:46:59;;;;;;;18.70;5.40;;;;;;;32.67;39.90;100017.91;5074418;28;20044;-79
2021/06/20 11:50:27;;;;;;;23.58;5.03;;;;;;;32.79;39.61;100010.03;5074668;28;20063;-79
2021/06/20 11:53:32;;;;;;;24.90;4.97;;;;;;;32.97;39.52;100019.63;5073828;28;20391;-79
2021/06/20 11:56:38;;;;;;;31.25;6.07;;;;;;;33.02;38.77;100005.69;5072987;28;20056;-79
2021/06/20 11:59:43;;;;;;;24.15;5.95;;;;;;;33.02;39.07;99999.28;5074835;28;20075;-80
2021/06/20 12:03:01;;;;;;;20.67;5.47;;;;;;;32.73;38.71;99996.47;5074394;28;20075;-80
2021/06/20 12:06:06;;;;;;;24.85;5.75;;;;;;;32.93;39.23;100003.81;5074431;28;20043;-80
2021/06/20 12:09:11;;;;;;;27.02;5.72;;;;;;;32.72;38.87;100015.09;5074044;28;20051;-79
2021/06/20 12:12:18;;;;;;;26.23;6.05;;;;;;;32.64;39.39;100018.47;5074298;28;20052;-80
2021/06/20 12:15:23;;;;;;;27.33;5.38;;;;;;;32.29;39.51;100012.25;5074416;28;20052;-79
2021/06/20 12:18:30;;;;;;;26.63;5.85;;;;;;;32.57;39.87;100006.84;5074498;28;20047;-79
2021/06/20 12:21:35;;;;;;;22.52;5.53;;;;;;;32.69;39.89;100001.75;5074168;28;20051;-78
2021/06/20 12:24:45;;;;;;;35.03;5.50;;;;;;;33.07;38.33;99997.34;5073621;28;20047;-78
2021/06/20 12:27:50;;;;;;;22.63;6.10;;;;;;;32.90;38.69;100008.00;5050874;28;20130;-79
2021/06/20 12:30:56;;;;;;;29.33;5.93;;;;;;;33.03;38.62;99987.94;5061957;28;20119;-79
2021/06/20 12:34:09;;;;;;;33.15;5.50;;;;;;;33.18;38.72;99984.97;5061374;28;20502;-79
2021/06/20 12:37:14;;;;;;;31.23;5.88;;;;;;;33.05;39.28;99990.41;5061730;28;20044;-77
2021/06/20 12:40:22;;;;;;;21.45;5.95;;;;;;;32.98;38.74;99982.38;5073999;28;20208;-78
2021/06/20 12:43:27;;;;;;;29.25;6.07;;;;;;;33.10;39.46;99979.22;5073937;28;20048;-80
2021/06/20 12:46:38;;;;;;;27.33;6.38;;;;;;;33.19;37.96;99971.91;5073163;28;20115;-79
2021/06/20 12:49:49;;;;;;;35.65;7.00;;;;;;;33.35;37.27;99974.28;5072766;28;20052;-79
2021/06/20 12:52:54;;;;;;;30.30;6.50;;;;;;;33.30;38.92;99967.91;5073553;28;20490;-79
2021/06/20 12:56:00;;;;;;;28.25;5.53;;;;;;;33.30;38.77;99970.69;5072953;28;20067;-79
2021/06/20 12:59:10;;;;;;;39.28;6.65;;;;;;;33.30;37.87;99965.13;5073812;28;20496;-79
2021/06/20 13:02:26;;;;;;;35.47;6.50;;;;;;;33.48;37.97;99977.50;5073794;28;20048;-79
2021/06/20 13:05:45;;;;;;;36.08;7.30;;;;;;;33.48;37.54;99977.50;5072869;28;20052;-80
2021/06/20 13:08:50;;;;;;;39.67;6.97;;;;;;;33.55;36.80;99967.69;5077052;28;20044;-79
2021/06/20 13:11:54;;;;;;;28.63;6.93;;;;;;;33.45;35.44;99958.59;5077175;28;20055;-80
2021/06/20 13:14:58;;;;;;;32.38;6.25;;;;;;;33.29;36.63;99966.25;5065057;28;20067;-80
2021/06/20 13:18:05;;;;;;;36.15;8.02;;;;;;;33.19;37.39;99952.44;5077632;28;20067;-79
2021/06/20 13:21:09;;;;;;;39.30;7.68;;;;;;;33.58;37.20;99952.34;5064907;28;20052;-78
2021/06/20 13:24:15;;;;;;;36.90;6.85;;;;;;;33.48;36.99;99958.81;5065127;28;20126;-79
2021/06/20 13:27:19;;;;;;;33.30;6.40;;;;;;;33.39;37.43;99955.00;5077453;28;20052;-77
2021/06/20 13:30:24;;;;;;;38.17;6.82;;;;;;;33.54;37.99;99956.81;5076843;28;20048;-78
2021/06/20 13:33:29;;;;;;;39.78;6.20;;;;;;;33.34;37.64;99955.91;5076369;28;20056;-78
2021/06/20 13:36:33;;;;;;;36.40;6.55;;;;;;;33.74;37.67;99962.19;5077241;28;20048;-80
2021/06/20 13:39:39;;;;;;;30.65;6.60;;;;;;;33.56;37.63;99958.19;5077452;28;20055;-80
2021/06/20 13:42:44;;;;;;;38.47;6.82;;;;;;;33.63;37.45;99947.53;5076225;28;20386;-79
2021/06/20 13:45:48;;;;;;;27.45;6.25;;;;;;;33.73;37.82;99946.59;5077097;28;20044;-80
2021/06/20 13:48:53;;;;;;;33.92;6.10;;;;;;;33.36;37.52;99947.25;5077001;28;20060;-79
2021/06/20 13:51:57;;;;;;;30.50;6.90;;;;;;;33.61;37.58;99947.00;5076921;28;20056;-79
2021/06/20 13:55:05;;;;;;;38.25;6.85;;;;;;;33.53;37.15;99936.47;5076853;28;20383;-79
2021/06/20 13:58:13;;;;;;;36.92;7.43;;;;;;;33.42;38.33;99946.09;5076886;28;20051;-79
2021/06/20 14:01:17;;;;;;;38.17;6.30;;;;;;;33.61;38.43;99932.25;5077012;28;20383;-80
2021/06/20 14:04:21;;;;;;;32.72;7.05;;;;;;;33.64;38.24;99915.81;5076711;28;20396;-80
2021/06/20 14:07:26;;;;;;;39.50;6.15;;;;;;;33.57;38.36;99906.97;5075811;28;20055;-79
2021/06/20 14:10:30;;;;;;;30.17;5.88;;;;;;;33.68;38.01;99888.16;5076549;28;20071;-79